Terminal Aerodrome Forecast
Issued by NWS Boston, MA

Current Version | Previous Version | Text Only | Print | Product List | Glossary On
Versions: 1 2 3 4 5 6 7 8 9 10 11 12 13 14 15
000
FTUS41 KBOX 242338
TAFORH
TAF
KORH 242338Z 2500/2524 17009KT P6SM BKN120
     FM250600 17006KT P6SM BKN045 OVC090
     FM251000 14005KT P6SM -RA OVC025
     FM251200 13010KT 3SM -RA BR OVC012
     FM251500 11011KT 2SM RA BR OVC003
     FM252300 15006KT 1SM -RA BR OVC003=

USA.gov is the U.S. government's official web portal to all federal, state and local government web resources and services.